createdAt,value
2019-02-09T00:01:25.208Z,3.52
2019-02-09T00:03:54.368Z,7.40
2019-02-09T00:06:23.429Z,4.20
2019-02-09T00:08:52.564Z,2.40
2019-02-09T00:11:21.527Z,2.85
2019-02-09T00:13:50.601Z,6.75
2019-02-09T00:16:19.568Z,2.87
2019-02-09T00:18:48.510Z,5.80
2019-02-09T00:21:17.602Z,4.62
2019-02-09T00:23:46.723Z,5.00
2019-02-09T00:26:15.955Z,2.37
2019-02-09T00:28:44.942Z,4.90
2019-02-09T00:31:14.069Z,4.00
2019-02-09T00:33:42.920Z,3.35
2019-02-09T00:36:11.844Z,4.90
2019-02-09T00:38:40.764Z,1.98
2019-02-09T00:41:09.773Z,5.58
2019-02-09T00:43:38.762Z,3.22
2019-02-09T00:46:07.721Z,2.05
2019-02-09T00:48:36.615Z,5.78
2019-02-09T00:51:06.119Z,4.03
2019-02-09T00:53:59.678Z,4.83
2019-02-09T00:56:28.640Z,5.85
2019-02-09T00:58:57.849Z,3.47
2019-02-09T01:01:27.123Z,13.68
2019-02-09T01:04:04.783Z,4.20
2019-02-09T01:06:33.892Z,4.72
2019-02-09T01:09:03.941Z,6.67
2019-02-09T01:11:33.671Z,4.65
2019-02-09T01:14:02.864Z,4.85
2019-02-09T01:16:51.845Z,6.08
2019-02-09T01:19:20.990Z,2.67
2019-02-09T01:21:50.373Z,4.78
2019-02-09T01:24:21.867Z,3.20
2019-02-09T01:26:50.770Z,4.78
2019-02-09T01:29:20.173Z,7.22
2019-02-09T01:31:49.412Z,6.03
2019-02-09T01:34:18.920Z,8.50
2019-02-09T01:36:50.308Z,14.53
2019-02-09T01:39:19.879Z,2.70
2019-02-09T01:41:49.417Z,3.92
2019-02-09T01:44:18.837Z,2.02
2019-02-09T01:46:48.296Z,3.00
2019-02-09T01:49:41.662Z,2.92
2019-02-09T01:52:10.871Z,3.67
2019-02-09T01:54:39.956Z,1.95
2019-02-09T01:57:09.649Z,3.12
2019-02-09T01:59:48.209Z,2.62
2019-02-09T02:02:20.981Z,5.10
2019-02-09T02:04:50.705Z,3.77
2019-02-09T02:07:23.015Z,4.50
2019-02-09T02:09:55.928Z,6.37
2019-02-09T02:12:28.351Z,2.30
2019-02-09T02:14:57.530Z,3.77
2019-02-09T02:17:30.650Z,3.37
2019-02-09T02:20:00.258Z,4.42
2019-02-09T02:22:31.842Z,3.10
2019-02-09T02:25:00.936Z,2.22
2019-02-09T02:27:30.108Z,3.42
2019-02-09T02:29:59.327Z,4.35
2019-02-09T02:32:28.771Z,2.85
2019-02-09T02:34:59.794Z,3.60
2019-02-09T02:37:29.085Z,2.55
2019-02-09T02:39:58.413Z,3.98
2019-02-09T02:42:27.379Z,3.62
2019-02-09T02:44:56.692Z,3.55
2019-02-09T02:50:21.222Z,3.95
2019-02-09T02:52:50.858Z,3.80
2019-02-09T02:55:24.948Z,3.12
2019-02-09T02:57:58.722Z,4.62
2019-02-09T03:00:32.144Z,5.95
2019-02-09T03:03:01.042Z,2.27
2019-02-09T03:05:30.113Z,3.35
2019-02-09T03:08:01.153Z,3.85
2019-02-09T03:10:30.608Z,5.87
2019-02-09T03:12:59.854Z,4.47
2019-02-09T03:15:32.742Z,3.90
2019-02-09T03:18:02.231Z,6.85
2019-02-09T03:20:31.945Z,3.45
2019-02-09T03:23:01.041Z,6.47
2019-02-09T03:25:32.247Z,4.85
2019-02-09T03:28:01.298Z,2.30
2019-02-09T03:30:30.431Z,4.05
2019-02-09T03:32:59.687Z,2.40
2019-02-09T03:35:28.948Z,3.17
2019-02-09T03:37:57.868Z,3.45
2019-02-09T03:40:27.339Z,3.30
2019-02-09T03:42:56.578Z,3.10
2019-02-09T03:45:30.203Z,3.20
2019-02-09T03:47:59.293Z,6.33
2019-02-09T03:50:30.608Z,4.40
2019-02-09T03:53:03.771Z,2.15
2019-02-09T03:55:36.722Z,4.85
2019-02-09T03:58:05.894Z,2.47
2019-02-09T04:00:35.183Z,3.42
2019-02-09T04:03:04.603Z,2.37
2019-02-09T04:05:33.942Z,2.80
2019-02-09T04:08:03.252Z,6.08
2019-02-09T04:10:32.511Z,4.40
2019-02-09T04:13:03.781Z,3.25
2019-02-09T04:15:33.343Z,4.53
2019-02-09T04:18:02.617Z,5.25
2019-02-09T04:20:31.816Z,3.08
2019-02-09T04:23:01.331Z,3.35
2019-02-09T04:25:35.731Z,2.75
2019-02-09T04:32:13.588Z,3.60
2019-02-09T04:34:47.200Z,2.90
2019-02-09T04:37:16.273Z,5.47
2019-02-09T04:39:45.565Z,2.83
2019-02-09T04:42:15.028Z,2.92
2019-02-09T04:44:44.344Z,2.67
2019-02-09T04:47:13.819Z,5.40
2019-02-09T04:49:42.865Z,4.25
2019-02-09T04:52:16.640Z,2.77
2019-02-09T04:54:45.659Z,6.90
2019-02-09T04:57:15.408Z,3.17
2019-02-09T04:59:45.064Z,3.58
2019-02-09T05:02:15.215Z,3.65
2019-02-09T05:04:46.589Z,3.20
2019-02-09T05:07:15.986Z,6.12
2019-02-09T05:09:47.432Z,3.00
2019-02-09T05:12:16.387Z,3.27
2019-02-09T05:14:45.442Z,4.45
2019-02-09T05:17:14.328Z,3.70
2019-02-09T05:19:43.415Z,8.30
2019-02-09T05:22:12.554Z,6.60
2019-02-09T05:24:42.116Z,3.42
2019-02-09T05:27:11.452Z,5.10
2019-02-09T05:30:00.032Z,3.50
2019-02-09T05:32:38.547Z,5.40
2019-02-09T05:35:08.540Z,2.80
2019-02-09T05:37:37.585Z,4.17
2019-02-09T05:40:10.364Z,2.87
2019-02-09T05:42:39.732Z,4.12
2019-02-09T05:45:11.661Z,5.12
2019-02-09T05:47:41.476Z,8.40
2019-02-09T05:50:12.278Z,3.05
2019-02-09T05:52:41.443Z,3.05
2019-02-09T05:55:33.085Z,3.60
2019-02-09T05:58:02.433Z,4.28
2019-02-09T06:00:39.867Z,4.00
2019-02-09T06:03:11.701Z,4.45
2019-02-09T06:05:40.730Z,4.03
2019-02-09T06:08:09.801Z,5.85
2019-02-09T06:10:42.289Z,4.12
2019-02-09T06:13:11.307Z,4.30
2019-02-09T06:15:40.598Z,5.33
2019-02-09T06:18:09.856Z,3.80
2019-02-09T06:20:44.678Z,6.58
2019-02-09T06:23:17.571Z,4.62
2019-02-09T06:25:46.704Z,3.92
2019-02-09T06:28:16.196Z,5.37
2019-02-09T06:30:47.032Z,2.98
2019-02-09T06:33:16.662Z,3.40
2019-02-09T06:35:46.016Z,3.87
2019-02-09T06:38:34.672Z,3.35
2019-02-09T06:41:04.117Z,4.35
2019-02-09T06:43:52.543Z,2.77
2019-02-09T06:46:22.176Z,3.42
2019-02-09T06:48:53.842Z,4.72
2019-02-09T06:51:24.436Z,1.80
2019-02-09T06:54:01.942Z,2.85
2019-02-09T06:56:31.204Z,2.65
2019-02-09T06:59:00.348Z,4.15
2019-02-09T07:01:29.306Z,3.62
2019-02-09T07:03:59.508Z,2.52
2019-02-09T07:06:28.662Z,3.92
2019-02-09T07:08:57.755Z,2.80
2019-02-09T07:11:26.684Z,3.55
2019-02-09T07:13:55.631Z,5.17
2019-02-09T07:16:24.564Z,3.80
2019-02-09T07:18:53.489Z,4.00
2019-02-09T07:21:22.409Z,4.95
2019-02-09T07:23:51.342Z,5.12
2019-02-09T07:26:20.416Z,6.92
2019-02-09T07:28:49.400Z,9.65
2019-02-09T07:31:18.565Z,5.75
2019-02-09T07:33:47.524Z,6.42
2019-02-09T07:36:16.451Z,5.80
2019-02-09T07:38:45.550Z,11.15
2019-02-09T07:41:14.672Z,6.80
2019-02-09T07:43:43.657Z,5.55
2019-02-09T07:46:12.719Z,7.90
2019-02-09T07:48:41.708Z,5.42
2019-02-09T07:51:10.780Z,4.72
2019-02-09T07:53:39.820Z,6.58
2019-02-09T07:56:09.394Z,4.80
2019-02-09T07:58:41.585Z,4.62
2019-02-09T08:01:10.921Z,3.85
2019-02-09T08:03:39.971Z,4.40
2019-02-09T08:06:12.341Z,4.42
2019-02-09T08:08:41.382Z,4.33
2019-02-09T08:11:10.627Z,4.22
2019-02-09T08:13:39.617Z,3.98
2019-02-09T08:16:08.859Z,7.37
2019-02-09T08:18:39.437Z,3.40
2019-02-09T08:21:11.432Z,5.37
2019-02-09T08:23:41.553Z,2.87
2019-02-09T08:26:10.983Z,3.92
2019-02-09T08:28:40.016Z,5.20
2019-02-09T08:31:10.293Z,3.52
2019-02-09T08:33:39.322Z,3.67
2019-02-09T08:36:08.476Z,3.77
2019-02-09T08:38:37.675Z,5.97
2019-02-09T08:41:06.962Z,3.75
2019-02-09T08:43:55.086Z,5.92
2019-02-09T08:46:24.155Z,3.83
2019-02-09T08:48:57.073Z,5.80
2019-02-09T08:51:28.103Z,6.47
2019-02-09T08:53:57.200Z,7.95
2019-02-09T08:56:27.054Z,3.85
2019-02-09T08:58:59.752Z,4.72
2019-02-09T09:02:21.222Z,7.40
2019-02-09T09:04:35.345Z,11.05
2019-02-09T09:07:22.173Z,6.45
2019-02-09T09:09:52.844Z,7.30
2019-02-09T09:12:29.614Z,4.25
2019-02-09T09:14:59.433Z,9.30
2019-02-09T09:17:28.839Z,2.45
2019-02-09T09:19:58.537Z,5.22
2019-02-09T09:22:41.672Z,10.80
2019-02-09T09:25:15.171Z,7.53
2019-02-09T09:27:52.744Z,12.50
2019-02-09T09:30:35.820Z,8.38
2019-02-09T09:33:10.101Z,10.93
2019-02-09T09:35:40.584Z,11.88
2019-02-09T09:38:47.656Z,8.73
2019-02-09T09:41:41.282Z,15.43
2019-02-09T09:44:13.635Z,7.22
2019-02-09T09:47:03.987Z,4.67
2019-02-09T09:49:33.522Z,7.85
2019-02-09T09:52:06.331Z,7.05
2019-02-09T09:54:39.429Z,7.60
2019-02-09T09:57:11.637Z,8.68
2019-02-09T10:00:02.125Z,6.37
2019-02-09T10:02:37.630Z,8.08
2019-02-09T10:11:15.363Z,9.20
2019-02-09T10:14:10.320Z,8.85
2019-02-09T10:16:51.491Z,5.22
2019-02-09T10:19:25.670Z,11.03
2019-02-09T10:21:57.689Z,10.48
2019-02-09T10:24:50.827Z,7.15
2019-02-09T10:27:23.277Z,7.92
2019-02-09T10:30:07.781Z,6.40
2019-02-09T10:35:40.200Z,5.62
2019-02-09T10:38:09.634Z,9.43
2019-02-09T10:40:43.760Z,8.63
2019-02-09T10:43:35.314Z,7.50
2019-02-09T10:46:48.100Z,6.35
2019-02-09T10:52:19.023Z,9.95
2019-02-09T10:55:05.718Z,15.08
2019-02-09T10:57:35.232Z,7.30
2019-02-09T11:00:09.921Z,4.70
2019-02-09T11:02:59.209Z,11.97
2019-02-09T11:05:32.208Z,8.15
2019-02-09T11:08:11.849Z,6.53
2019-02-09T11:11:33.188Z,11.75
2019-02-09T11:14:06.379Z,7.97
2019-02-09T11:16:35.440Z,6.30
2019-02-09T11:19:14.230Z,7.42
2019-02-09T11:22:11.931Z,8.23
2019-02-09T11:25:02.043Z,8.58
2019-02-09T11:27:37.434Z,7.75
2019-02-09T11:30:09.151Z,8.03
2019-02-09T11:32:41.448Z,9.90
2019-02-09T11:35:19.361Z,10.23
2019-02-09T11:37:49.478Z,5.75
2019-02-09T11:41:00.616Z,7.20
2019-02-09T11:43:57.402Z,8.63
2019-02-09T11:50:18.428Z,12.05
2019-02-09T11:52:54.837Z,9.95
2019-02-09T11:55:36.892Z,11.15
2019-02-09T11:58:14.369Z,9.88
2019-02-09T12:01:09.333Z,12.28
2019-02-09T12:04:05.262Z,15.23
2019-02-09T12:06:31.505Z,10.98
2019-02-09T12:09:22.683Z,11.97
2019-02-09T12:12:08.463Z,8.98
2019-02-09T12:14:55.701Z,8.75
2019-02-09T12:20:54.298Z,10.55
2019-02-09T12:23:26.670Z,13.43
2019-02-09T12:25:58.818Z,12.85
2019-02-09T12:28:50.336Z,8.38
2019-02-09T12:31:27.643Z,16.87
2019-02-09T12:33:56.906Z,13.38
2019-02-09T12:36:29.390Z,12.00
2019-02-09T12:39:27.599Z,14.05
2019-02-09T12:42:43.868Z,8.75
2019-02-09T12:45:30.708Z,11.15
2019-02-09T12:48:25.465Z,14.23
2019-02-09T12:50:58.294Z,10.20
2019-02-09T12:53:50.100Z,4.78
2019-02-09T12:56:27.915Z,14.68
2019-02-09T12:58:57.600Z,14.85
2019-02-09T13:02:24.435Z,13.15
2019-02-09T13:04:55.261Z,7.12
2019-02-09T13:07:24.756Z,5.05
2019-02-09T13:09:54.179Z,8.53
2019-02-09T13:12:25.237Z,9.93
2019-02-09T13:14:56.737Z,9.35
2019-02-09T13:17:27.470Z,11.43
2019-02-09T13:20:11.243Z,5.30
2019-02-09T13:22:40.691Z,7.20
2019-02-09T13:25:30.537Z,7.33
2019-02-09T13:28:05.833Z,6.85
2019-02-09T13:31:00.711Z,9.93
2019-02-09T13:33:30.141Z,8.05
2019-02-09T13:36:12.613Z,5.75
2019-02-09T13:39:06.076Z,16.20
2019-02-09T13:44:26.787Z,11.08
2019-02-09T13:46:56.153Z,9.15
2019-02-09T13:49:29.695Z,10.28
2019-02-09T13:52:15.631Z,7.20
2019-02-09T13:54:44.917Z,9.33
2019-02-09T13:57:14.094Z,18.45
2019-02-09T13:59:43.768Z,11.33
2019-02-09T14:02:40.378Z,7.78
2019-02-09T14:05:11.763Z,10.00
2019-02-09T14:07:40.979Z,9.15
2019-02-09T14:10:10.921Z,10.32
2019-02-09T14:12:40.215Z,7.40
2019-02-09T14:15:12.910Z,10.35
2019-02-09T14:17:42.316Z,7.83
2019-02-09T14:20:15.233Z,12.15
2019-02-09T14:22:44.340Z,13.15
2019-02-09T14:25:13.886Z,10.13
2019-02-09T14:27:43.255Z,7.92
2019-02-09T14:30:15.771Z,11.33
2019-02-09T14:33:02.391Z,11.43
2019-02-09T14:35:31.958Z,11.88
2019-02-09T14:38:01.912Z,2.02
2019-02-09T14:40:37.077Z,8.45
2019-02-09T14:43:07.168Z,8.98
2019-02-09T14:45:39.369Z,4.62
2019-02-09T14:48:46.134Z,7.30
2019-02-09T14:51:29.461Z,6.25
2019-02-09T14:53:58.874Z,11.40
2019-02-09T14:56:29.159Z,11.53
2019-02-09T14:58:58.381Z,5.83
2019-02-09T15:01:50.897Z,3.67
2019-02-09T15:04:20.380Z,3.92
2019-02-09T15:07:08.930Z,5.53
2019-02-09T15:09:38.129Z,2.62
2019-02-09T15:12:07.250Z,4.67
2019-02-09T15:14:36.459Z,9.58
2019-02-09T15:17:06.114Z,4.40
2019-02-09T15:19:37.820Z,3.30
2019-02-09T15:22:07.626Z,12.78
2019-02-09T15:24:36.871Z,10.03
2019-02-09T15:27:06.131Z,7.47
2019-02-09T15:29:35.594Z,5.83
2019-02-09T15:32:04.921Z,6.95
2019-02-09T15:34:34.197Z,2.67
2019-02-09T15:37:03.150Z,8.48
2019-02-09T15:39:32.548Z,10.58
2019-02-09T15:42:01.917Z,13.60
2019-02-09T15:44:31.121Z,8.90
2019-02-09T15:47:00.461Z,6.92
2019-02-09T15:49:29.853Z,15.05
2019-02-09T15:51:58.990Z,10.72
2019-02-09T15:54:29.455Z,11.50
2019-02-09T15:56:58.775Z,9.55
2019-02-09T15:59:28.070Z,8.65
2019-02-09T16:01:57.718Z,11.00
2019-02-09T16:04:26.939Z,11.05
2019-02-09T16:06:56.156Z,10.60
2019-02-09T16:09:27.919Z,9.65
2019-02-09T16:11:57.098Z,9.80
2019-02-09T16:14:26.349Z,16.60
2019-02-09T16:16:55.682Z,9.85
2019-02-09T16:19:26.785Z,13.38
2019-02-09T16:21:55.704Z,10.82
2019-02-09T16:24:25.147Z,12.60
2019-02-09T16:26:54.648Z,14.63
2019-02-09T16:29:23.923Z,10.43
2019-02-09T16:31:53.310Z,11.95
2019-02-09T16:34:25.609Z,5.25
2019-02-09T16:36:53.304Z,8.85
2019-02-09T16:39:22.472Z,12.23
2019-02-09T16:41:51.834Z,9.58
2019-02-09T16:44:22.955Z,17.15
2019-02-09T16:46:52.118Z,9.25
2019-02-09T16:49:22.249Z,10.32
2019-02-09T16:52:19.586Z,8.28
2019-02-09T16:54:49.172Z,11.60
2019-02-09T16:57:39.583Z,7.28
2019-02-09T17:00:10.922Z,12.45
2019-02-09T17:02:46.762Z,14.73
2019-02-09T17:09:12.286Z,11.03
2019-02-09T17:11:45.787Z,9.83
2019-02-09T17:14:20.729Z,14.10
2019-02-09T17:16:53.477Z,5.17
2019-02-09T17:20:01.381Z,9.73
2019-02-09T17:22:30.429Z,11.95
2019-02-09T17:25:00.418Z,12.88
2019-02-09T17:27:29.347Z,7.45
2019-02-09T17:32:52.745Z,13.18
2019-02-09T17:35:21.974Z,7.60
2019-02-09T17:40:46.794Z,6.70
2019-02-09T17:43:24.378Z,9.90
2019-02-09T17:45:58.625Z,14.75
2019-02-09T17:48:27.973Z,11.33
2019-02-09T17:50:57.366Z,12.33
2019-02-09T17:53:31.780Z,6.45
2019-02-09T17:59:35.337Z,12.40
2019-02-09T18:02:08.136Z,13.83
2019-02-09T18:04:48.614Z,13.08
2019-02-09T18:07:17.523Z,20.02
2019-02-09T18:10:07.265Z,12.20
2019-02-09T18:12:36.386Z,13.32
2019-02-09T18:15:09.429Z,18.70
2019-02-09T18:17:52.549Z,13.48
2019-02-09T18:20:23.505Z,17.70
2019-02-09T18:22:52.815Z,14.95
2019-02-09T18:25:25.376Z,8.48
2019-02-09T18:27:59.791Z,13.78
2019-02-09T18:30:33.979Z,16.77
2019-02-09T18:33:02.965Z,8.95
2019-02-09T18:35:32.113Z,10.48
2019-02-09T18:38:01.394Z,18.67
2019-02-09T18:40:30.726Z,5.80
2019-02-09T18:45:48.168Z,11.22
2019-02-09T18:48:20.660Z,13.53
2019-02-09T18:50:50.380Z,9.68
2019-02-09T18:53:19.712Z,8.75
2019-02-09T18:55:49.843Z,6.05
2019-02-09T18:58:19.840Z,19.42
2019-02-09T19:00:49.266Z,15.08
2019-02-09T19:05:54.768Z,17.07
2019-02-09T19:08:25.722Z,9.53
2019-02-09T19:10:55.142Z,9.85
2019-02-09T19:14:26.072Z,9.18
2019-02-09T19:34:07.757Z,21.50
2019-02-09T19:37:34.360Z,12.47
2019-02-09T19:40:04.138Z,22.32
2019-02-09T19:42:33.709Z,16.20
2019-02-09T19:45:03.912Z,13.95
2019-02-09T19:47:47.101Z,17.67
2019-02-09T19:50:36.247Z,15.48
2019-02-09T20:01:39.541Z,14.25
2019-02-09T20:04:14.858Z,13.98
2019-02-09T20:07:48.438Z,10.60
2019-02-09T20:10:31.174Z,14.68
2019-02-09T20:13:25.322Z,11.85
2019-02-09T20:15:56.905Z,16.30
2019-02-09T20:21:50.626Z,9.75
2019-02-09T20:24:43.548Z,10.60
2019-02-09T20:31:11.498Z,13.32
2019-02-09T20:37:30.825Z,11.30
2019-02-09T20:40:40.021Z,10.30
2019-02-09T20:43:53.468Z,11.28
2019-02-09T20:46:46.013Z,12.37
2019-02-09T20:49:54.371Z,12.98
2019-02-09T20:52:51.315Z,10.40
2019-02-09T20:55:53.542Z,11.53
2019-02-09T20:58:56.922Z,16.40
2019-02-09T21:01:27.760Z,10.95
2019-02-09T21:03:56.873Z,14.20
2019-02-09T21:06:48.229Z,13.53
2019-02-09T21:09:17.227Z,15.55
2019-02-09T21:11:46.206Z,14.03
2019-02-09T21:14:15.170Z,9.90
2019-02-09T21:16:51.442Z,17.75
2019-02-09T21:19:15.012Z,9.73
2019-02-09T21:21:49.135Z,11.83
2019-02-09T21:24:18.013Z,17.42
2019-02-09T21:27:11.737Z,24.27
2019-02-09T21:29:40.909Z,12.07
2019-02-09T21:32:10.008Z,20.25
2019-02-09T21:34:39.083Z,11.97
2019-02-09T21:37:08.482Z,11.48
2019-02-09T21:39:56.734Z,18.05
2019-02-09T21:42:25.807Z,13.45
2019-02-09T21:44:54.744Z,20.08
2019-02-09T21:47:31.588Z,10.15
2019-02-09T21:50:00.612Z,14.87
2019-02-09T21:52:29.612Z,9.70
2019-02-09T21:54:58.577Z,9.08
2019-02-09T21:57:27.644Z,9.75
2019-02-09T21:59:56.721Z,14.43
2019-02-09T22:02:25.900Z,12.50
2019-02-09T22:04:55.479Z,17.30
2019-02-09T22:10:18.560Z,16.32
2019-02-09T22:12:56.324Z,10.95
2019-02-09T22:15:28.925Z,10.13
2019-02-09T22:18:09.305Z,16.12
2019-02-09T22:20:38.978Z,11.38
2019-02-09T22:23:11.914Z,20.27
2019-02-09T22:25:41.626Z,17.07
2019-02-09T22:28:13.354Z,17.27
2019-02-09T22:30:42.442Z,15.70
2019-02-09T22:33:11.829Z,14.75
2019-02-09T22:35:40.846Z,11.50
2019-02-09T22:38:10.216Z,12.85
2019-02-09T22:40:39.446Z,12.63
2019-02-09T22:43:09.058Z,8.33
2019-02-09T22:45:40.986Z,20.32
2019-02-09T22:48:56.254Z,13.13
2019-02-09T22:55:02.019Z,12.70
2019-02-09T23:00:36.431Z,16.00
2019-02-09T23:03:06.699Z,10.98
2019-02-09T23:06:11.329Z,12.98
2019-02-09T23:08:40.483Z,8.55
2019-02-09T23:11:09.816Z,18.12
2019-02-09T23:13:38.840Z,7.83
2019-02-09T23:16:28.743Z,15.78
2019-02-09T23:18:59.790Z,19.30
2019-02-09T23:21:28.856Z,18.07
2019-02-09T23:23:58.112Z,11.25
2019-02-09T23:26:27.197Z,16.52
2019-02-09T23:28:56.332Z,10.68
2019-02-09T23:31:25.332Z,13.38
2019-02-09T23:33:54.355Z,12.70
2019-02-09T23:36:23.569Z,22.90
2019-02-09T23:38:52.560Z,15.58
2019-02-09T23:41:21.695Z,8.83
2019-02-09T23:43:50.588Z,16.90
2019-02-09T23:52:18.975Z,13.13
2019-02-09T23:54:48.221Z,13.78
2019-02-09T23:57:17.211Z,9.23
2019-02-09T23:59:46.254Z,14.73
